Fazenda São Miguel Airstrip

BR-0045 · 戈亚斯州, 巴西

TAF BR-0045 · Fazenda São Miguel Airstrip

22 七月 01:00 LT
6h
使用的TAF站离机场有348 km的距离
2024年7月22日 03:002024年7月22日 15:00有效
时间
星期一
03:00
星期一
04:00
星期一
05:00
星期一
06:00
星期一
07:00
星期一
08:00
星期一
09:00
星期一
10:00
星期一
11:00
星期一
12:00
星期一
13:00
星期一
14:00
代码
VFR
VFR
VFR
VFR
VFR
VFR
VFR
VFR
VFR
VFR
VFR
VFR
天气
天空晴朗
天空晴朗
天空晴朗
天空晴朗
天空晴朗
天空晴朗
天空晴朗
天空晴朗
天空晴朗
天空晴朗
天空晴朗
天空晴朗
能见度
10 km+
10 km+
10 km+
10 km+
10 km+
10 km+
10 km+
10 km+
10 km+
10 km+
10 km+
10 km+
天花板
-
-
-
-
-
-
-
-
-
-
-
-
360°
360°
360°
360°
360°
360°
360°
360°
360°
360°
360°
360°
360°
360°
080°
080°
080°
080°
080°
080°
080°
080°
080°
080°
速度
5 kt
5 kt
5 kt
5 kt
5 kt
阵风
温度/星期日
05:56
21 °C
32 °C

原版的

TAF SBBW 220400Z 2206/2218 00000KT CAVOK TN21/2212Z TX32/2217Z
BECMG 2213/2215 08005KT RMK PGH

TAF Fazenda São Miguel Airstrip

Fazenda São Miguel Airstrip是,巴西中的小机场。 该机场位于纬度-13,29120和经度-50,54680。 这个机场没有ICAO代码,我们使用BR-0045作为参考。 机场在Brasilia FIR中。

该航空气象观测是针对Barra do Garças Airport在2024年7月22日 00:00, 当地时间进行的。 从2024年7月22日 03:00到2024年7月22日 15:00, 当地时间有效.

预报

  • 在星期一 03:00和15:00之间

    • 风: 风来自360°方向,速度为0 kt。
    • CAVOK: 天气为CAVOK。这意味着在5.000 ft或MSA(最低安全高度)以下(以较高者为准)以下没有云。这也意味着没有观测到积雨云或高耸的积云,可见度为10 km 或者更多或更高。此外,不会有雾,降雨或其他重要天气。
    • 最低温度: 21 °C在2024年7月22日在09:00
    • 最高温度: 32 °C在2024年7月22日在14:00
  • 介于星期一 10:00和12:00之间

    • 风: 风来自080°方向,速度为5 kt。

白天

今天,太阳从06:44升起,在18:12降落。 这适用于Fazenda São Miguel Airstrip,世界夏令时可能有所不同。 当地时间与世界标准时间之间的时差为-3 小时。 夏令时目前正在进行中。

报告变更